createdAt,value
2022-08-04T00:00:16.161Z,1.20
2022-08-04T00:03:16.799Z,1.17
2022-08-04T00:06:07.851Z,1.70
2022-08-04T00:08:53.018Z,1.50
2022-08-04T00:11:25.982Z,1.50
2022-08-04T00:14:16.744Z,1.40
2022-08-04T00:16:45.801Z,1.30
2022-08-04T00:19:30.310Z,1.50
2022-08-04T00:22:02.764Z,1.58
2022-08-04T00:24:32.911Z,1.25
2022-08-04T00:29:27.815Z,1.65
2022-08-04T00:31:57.861Z,1.75
2022-08-04T00:34:29.965Z,1.17
2022-08-04T00:36:58.381Z,1.35
2022-08-04T00:39:26.317Z,1.30
2022-08-04T00:42:11.671Z,1.30
2022-08-04T00:45:08.728Z,1.27
2022-08-04T00:47:53.237Z,1.50
2022-08-04T00:50:49.546Z,1.48
2022-08-04T00:53:27.657Z,1.58
2022-08-04T00:56:00.617Z,1.35
2022-08-04T00:58:59.814Z,1.35
2022-08-04T01:01:39.882Z,1.73
2022-08-04T01:04:50.271Z,1.40
2022-08-04T01:07:50.715Z,1.23
2022-08-04T01:10:28.873Z,1.60
2022-08-04T01:13:17.729Z,1.42
2022-08-04T01:16:00.024Z,1.50
2022-08-04T01:18:37.164Z,1.60
2022-08-04T01:21:26.613Z,1.92
2022-08-04T01:24:13.914Z,1.42
2022-08-04T01:26:57.994Z,1.60
2022-08-04T01:29:32.987Z,1.70
2022-08-04T01:32:45.395Z,1.60
2022-08-04T01:35:22.183Z,1.40
2022-08-04T01:38:36.992Z,2.33
2022-08-04T01:41:06.388Z,1.38
2022-08-04T01:43:35.571Z,2.78
2022-08-04T01:46:04.505Z,1.80
2022-08-04T01:48:32.684Z,1.38
2022-08-04T01:51:05.989Z,1.57
2022-08-04T01:53:42.064Z,1.38
2022-08-04T01:56:11.305Z,1.65
2022-08-04T01:58:40.022Z,1.67
2022-08-04T02:01:09.948Z,1.63
2022-08-04T02:04:19.840Z,1.50
2022-08-04T02:06:46.318Z,1.50
2022-08-04T02:09:54.544Z,1.73
2022-08-04T02:13:00.797Z,1.50
2022-08-04T02:15:30.256Z,1.67
2022-08-04T02:18:23.376Z,1.70
2022-08-04T02:20:59.228Z,2.10
2022-08-04T02:23:41.501Z,1.85
2022-08-04T02:26:22.891Z,1.63
2022-08-04T02:29:15.273Z,1.95
2022-08-04T02:31:57.954Z,2.45
2022-08-04T02:34:43.208Z,2.20
2022-08-04T02:37:11.810Z,2.20
2022-08-04T02:39:48.114Z,2.35
2022-08-04T02:42:17.180Z,2.75
2022-08-04T02:44:50.393Z,2.15
2022-08-04T02:47:21.720Z,3.17
2022-08-04T02:49:51.676Z,2.45
2022-08-04T02:52:21.570Z,2.42
2022-08-04T02:54:53.487Z,2.47
2022-08-04T02:57:29.574Z,2.25
2022-08-04T03:00:18.859Z,2.67
2022-08-04T03:02:56.152Z,2.20
2022-08-04T03:05:28.305Z,2.40
2022-08-04T03:07:57.857Z,2.47
2022-08-04T03:10:52.834Z,2.17
2022-08-04T03:13:56.196Z,2.25
2022-08-04T03:16:48.015Z,1.90
2022-08-04T03:19:51.490Z,2.00
2022-08-04T03:23:11.536Z,1.63
2022-08-04T03:25:56.766Z,1.73
2022-08-04T03:28:33.418Z,1.80
2022-08-04T03:31:14.531Z,2.42
2022-08-04T03:33:56.250Z,1.60
2022-08-04T03:36:30.257Z,2.00
2022-08-04T03:39:19.777Z,2.10
2022-08-04T03:42:08.415Z,1.85
2022-08-04T03:44:56.716Z,1.80
2022-08-04T03:47:45.545Z,1.52
2022-08-04T03:50:15.200Z,1.77
2022-08-04T03:53:09.618Z,1.60
2022-08-04T03:55:51.312Z,1.60
2022-08-04T03:58:36.925Z,1.75
2022-08-04T04:02:02.005Z,1.73
2022-08-04T04:04:49.929Z,1.75
2022-08-04T04:07:36.468Z,1.83
2022-08-04T04:10:36.011Z,1.98
2022-08-04T04:13:28.639Z,2.37
2022-08-04T04:15:58.275Z,2.40
2022-08-04T04:18:45.591Z,1.80
2022-08-04T04:21:34.184Z,2.17
2022-08-04T04:24:07.657Z,1.85
2022-08-04T04:26:57.075Z,2.30
2022-08-04T04:29:29.944Z,2.33
2022-08-04T04:32:09.781Z,2.50
2022-08-04T04:35:00.617Z,2.17
2022-08-04T04:37:27.302Z,2.17
2022-08-04T04:40:30.192Z,2.33
2022-08-04T04:43:06.063Z,2.47
2022-08-04T04:45:53.787Z,2.63
2022-08-04T04:48:40.220Z,2.33
2022-08-04T04:51:22.831Z,2.50
2022-08-04T04:54:20.389Z,2.10
2022-08-04T04:57:14.767Z,2.38
2022-08-04T04:59:56.922Z,2.15
2022-08-04T05:02:50.907Z,2.30
2022-08-04T05:05:45.338Z,2.85
2022-08-04T05:08:44.299Z,2.40
2022-08-04T05:11:56.563Z,2.30
2022-08-04T05:14:35.371Z,2.35
2022-08-04T05:17:22.268Z,2.40
2022-08-04T05:20:01.215Z,2.30
2022-08-04T05:22:39.514Z,2.47
2022-08-04T05:25:33.600Z,2.72
2022-08-04T05:28:09.019Z,2.72
2022-08-04T05:30:47.440Z,2.38
2022-08-04T05:33:35.457Z,2.40
2022-08-04T05:36:20.723Z,2.55
2022-08-04T05:38:59.683Z,2.47
2022-08-04T05:41:44.770Z,2.30
2022-08-04T05:44:15.213Z,2.70
2022-08-04T05:46:44.826Z,2.58
2022-08-04T05:49:22.070Z,2.35
2022-08-04T05:51:50.053Z,2.67
2022-08-04T05:54:18.462Z,2.53
2022-08-04T05:56:46.479Z,2.42
2022-08-04T05:59:14.579Z,2.30
2022-08-04T06:01:56.729Z,2.80
2022-08-04T06:04:40.103Z,2.60
2022-08-04T06:07:08.522Z,2.08
2022-08-04T06:09:35.312Z,2.80
2022-08-04T06:12:07.097Z,2.25
2022-08-04T06:14:42.978Z,2.50
2022-08-04T06:18:33.174Z,2.40
2022-08-04T06:20:18.007Z,2.63
2022-08-04T06:22:50.856Z,2.67
2022-08-04T06:25:22.399Z,2.80
2022-08-04T06:27:50.771Z,2.50
2022-08-04T06:30:19.356Z,2.50
2022-08-04T06:33:04.203Z,2.22
2022-08-04T06:35:34.275Z,2.70
2022-08-04T06:38:03.238Z,2.40
2022-08-04T06:40:33.683Z,2.28
2022-08-04T06:43:03.905Z,2.50
2022-08-04T06:45:32.089Z,2.65
2022-08-04T06:48:00.315Z,2.53
2022-08-04T06:51:27.049Z,2.58
2022-08-04T06:53:14.485Z,2.20
2022-08-04T06:55:43.652Z,2.58
2022-08-04T06:58:11.562Z,2.20
2022-08-04T07:00:40.697Z,2.40
2022-08-04T07:03:08.488Z,2.47
2022-08-04T07:05:35.946Z,2.00
2022-08-04T07:08:04.277Z,2.40
2022-08-04T07:10:31.789Z,1.85
2022-08-04T07:13:00.748Z,2.22
2022-08-04T07:15:28.282Z,2.00
2022-08-04T07:18:01.737Z,2.05
2022-08-04T07:20:33.967Z,2.40
2022-08-04T07:23:04.785Z,2.38
2022-08-04T07:26:00.279Z,2.15
2022-08-04T07:28:21.711Z,2.45
2022-08-04T07:30:49.633Z,2.22
2022-08-04T07:33:18.310Z,2.22
2022-08-04T07:36:08.382Z,1.95
2022-08-04T07:38:48.309Z,1.75
2022-08-04T07:41:37.770Z,2.42
2022-08-04T07:44:06.568Z,2.20
2022-08-04T07:46:33.334Z,2.22
2022-08-04T07:49:01.270Z,1.80
2022-08-04T07:51:30.454Z,2.00
2022-08-04T07:53:58.083Z,2.10
2022-08-04T07:56:27.254Z,2.15
2022-08-04T07:58:55.221Z,1.98
2022-08-04T08:01:23.819Z,2.22
2022-08-04T08:03:53.412Z,2.25
2022-08-04T08:06:32.746Z,2.08
2022-08-04T08:09:02.076Z,2.20
2022-08-04T08:12:37.317Z,1.85
2022-08-04T08:14:28.319Z,2.58
2022-08-04T08:16:55.406Z,2.10
2022-08-04T08:19:22.121Z,2.30
2022-08-04T08:21:59.420Z,2.10
2022-08-04T08:24:29.188Z,2.35
2022-08-04T08:26:57.166Z,1.88
2022-08-04T08:29:25.826Z,2.30
2022-08-04T08:31:58.324Z,1.92
2022-08-04T08:34:29.277Z,2.10
2022-08-04T08:37:05.023Z,2.13
2022-08-04T08:39:36.289Z,2.15
2022-08-04T08:42:46.152Z,1.85
2022-08-04T08:45:34.026Z,1.90
2022-08-04T08:48:22.709Z,1.90
2022-08-04T08:51:32.024Z,1.90
2022-08-04T08:54:13.772Z,2.17
2022-08-04T08:57:11.059Z,2.03
2022-08-04T08:59:53.008Z,2.20
2022-08-04T09:02:23.149Z,1.75
2022-08-04T09:05:08.654Z,1.92
2022-08-04T09:08:06.428Z,1.70
2022-08-04T09:10:47.576Z,1.42
2022-08-04T09:13:20.590Z,1.55
2022-08-04T09:16:02.136Z,1.48
2022-08-04T09:18:43.580Z,1.52
2022-08-04T09:21:21.729Z,2.67
2022-08-04T09:24:35.817Z,1.85
2022-08-04T09:27:03.604Z,1.63
2022-08-04T09:29:45.399Z,1.75
2022-08-04T09:32:39.663Z,1.48
2022-08-04T09:35:34.283Z,1.52
2022-08-04T09:38:26.779Z,1.30
2022-08-04T09:41:48.672Z,1.67
2022-08-04T09:44:51.225Z,1.50
2022-08-04T09:49:44.098Z,1.60
2022-08-04T09:52:38.149Z,1.60
2022-08-04T09:55:14.878Z,1.63
2022-08-04T09:58:00.176Z,1.70
2022-08-04T10:00:41.341Z,1.50
2022-08-04T10:03:12.162Z,1.63
2022-08-04T10:05:47.845Z,1.83
2022-08-04T10:08:41.542Z,1.35
2022-08-04T10:11:31.453Z,1.42
2022-08-04T10:14:21.357Z,1.60
2022-08-04T10:17:09.816Z,1.30
2022-08-04T10:19:38.905Z,1.35
2022-08-04T10:25:37.683Z,1.75
2022-08-04T10:28:12.524Z,1.52
2022-08-04T10:30:45.465Z,1.58
2022-08-04T10:33:24.861Z,1.60
2022-08-04T10:36:01.784Z,1.52
2022-08-04T10:38:37.892Z,1.20
2022-08-04T10:41:16.307Z,1.48
2022-08-04T10:44:04.251Z,1.50
2022-08-04T10:46:39.657Z,1.58
2022-08-04T10:49:22.008Z,1.50
2022-08-04T10:52:05.790Z,1.48
2022-08-04T10:55:01.964Z,1.38
2022-08-04T10:57:37.187Z,1.80
2022-08-04T11:00:10.562Z,1.30
2022-08-04T11:03:02.145Z,1.40
2022-08-04T11:05:49.350Z,1.40
2022-08-04T11:08:27.223Z,1.50
2022-08-04T11:11:05.580Z,1.38
2022-08-04T11:13:47.190Z,1.38
2022-08-04T11:16:21.021Z,1.40
2022-08-04T11:19:45.149Z,1.17
2022-08-04T11:22:26.671Z,1.75
2022-08-04T11:25:14.669Z,1.42
2022-08-04T11:27:54.221Z,1.60
2022-08-04T11:30:23.000Z,1.23
2022-08-04T11:33:27.292Z,1.60
2022-08-04T11:36:00.829Z,1.58
2022-08-04T11:38:36.877Z,1.38
2022-08-04T11:41:13.024Z,1.40
2022-08-04T11:44:00.737Z,1.33
2022-08-04T11:46:48.776Z,1.50
2022-08-04T11:49:23.676Z,1.73
2022-08-04T11:51:52.379Z,1.58
2022-08-04T11:54:20.374Z,1.85
2022-08-04T11:56:47.145Z,1.70
2022-08-04T11:59:14.944Z,1.70
2022-08-04T12:02:01.251Z,1.60
2022-08-04T12:04:45.573Z,1.95
2022-08-04T12:07:30.503Z,1.60
2022-08-04T12:10:12.475Z,1.60
2022-08-04T12:12:58.959Z,1.67
2022-08-04T12:15:33.438Z,1.80
2022-08-04T12:18:18.911Z,1.88
2022-08-04T12:21:18.953Z,1.83
2022-08-04T12:23:50.679Z,1.70
2022-08-04T12:26:37.252Z,1.65
2022-08-04T12:29:10.272Z,1.75
2022-08-04T12:31:55.519Z,1.77
2022-08-04T12:34:34.441Z,1.70
2022-08-04T12:37:06.704Z,1.77
2022-08-04T12:39:35.748Z,1.77
2022-08-04T12:42:35.959Z,1.55
2022-08-04T12:45:08.067Z,1.60
2022-08-04T12:47:36.993Z,1.50
2022-08-04T12:50:07.043Z,1.70
2022-08-04T12:55:33.867Z,1.77
2022-08-04T12:58:02.813Z,1.80
2022-08-04T13:00:41.283Z,1.63
2022-08-04T13:03:17.351Z,1.60
2022-08-04T13:05:45.580Z,1.73
2022-08-04T13:08:13.307Z,1.93
2022-08-04T13:10:46.171Z,1.70
2022-08-04T13:13:19.285Z,1.92
2022-08-04T13:16:03.939Z,1.70
2022-08-04T13:18:40.000Z,1.45
2022-08-04T13:21:21.232Z,1.90
2022-08-04T13:24:19.871Z,1.75
2022-08-04T13:27:16.395Z,1.77
2022-08-04T13:29:59.902Z,1.70
2022-08-04T13:32:32.223Z,1.88
2022-08-04T13:35:02.165Z,1.60
2022-08-04T13:37:37.043Z,1.83
2022-08-04T13:40:12.703Z,1.80
2022-08-04T13:42:42.045Z,1.65
2022-08-04T13:45:10.006Z,1.70
2022-08-04T13:47:39.515Z,1.60
2022-08-04T13:50:17.999Z,1.48
2022-08-04T13:52:47.495Z,1.60
2022-08-04T13:55:20.087Z,1.80
2022-08-04T13:57:50.965Z,1.50
2022-08-04T14:00:29.183Z,1.50
2022-08-04T14:03:23.465Z,1.35
2022-08-04T14:06:29.177Z,1.60
2022-08-04T14:08:57.500Z,1.80
2022-08-04T14:12:07.553Z,1.73
2022-08-04T14:14:27.978Z,1.90
2022-08-04T14:16:56.429Z,1.85
2022-08-04T14:19:25.853Z,1.50
2022-08-04T14:21:55.981Z,1.70
2022-08-04T14:24:25.441Z,1.80
2022-08-04T14:26:52.284Z,1.77
2022-08-04T14:29:27.796Z,1.55
2022-08-04T14:32:01.166Z,1.42
2022-08-04T14:34:30.367Z,1.80
2022-08-04T14:37:17.839Z,1.77
2022-08-04T14:40:18.067Z,1.65
2022-08-04T14:42:55.831Z,1.95
2022-08-04T14:45:54.322Z,1.60
2022-08-04T14:50:50.437Z,1.63
2022-08-04T14:53:26.200Z,1.58
2022-08-04T14:55:57.143Z,1.80
2022-08-04T14:58:38.778Z,1.80
2022-08-04T15:01:09.836Z,1.60
2022-08-04T15:03:49.957Z,1.30
2022-08-04T15:06:23.372Z,1.65
2022-08-04T15:08:51.892Z,1.80
2022-08-04T15:11:22.670Z,1.60
2022-08-04T15:13:53.638Z,2.13
2022-08-04T15:16:26.152Z,1.60
2022-08-04T15:18:54.810Z,1.70
2022-08-04T15:21:26.166Z,1.88
2022-08-04T15:23:53.028Z,2.03
2022-08-04T15:26:34.617Z,1.90
2022-08-04T15:29:22.877Z,2.00
2022-08-04T15:32:06.007Z,1.75
2022-08-04T15:34:49.522Z,2.10
2022-08-04T15:37:28.645Z,1.75
2022-08-04T15:40:06.741Z,2.25
2022-08-04T15:42:44.310Z,1.80
2022-08-04T15:46:37.201Z,1.88
2022-08-04T15:48:13.852Z,1.90
2022-08-04T15:50:58.692Z,2.00
2022-08-04T15:53:28.653Z,1.85
2022-08-04T15:56:26.533Z,2.20
2022-08-04T15:58:55.181Z,2.20
2022-08-04T16:01:22.824Z,2.13
2022-08-04T16:04:01.260Z,1.90
2022-08-04T16:06:29.575Z,2.00
2022-08-04T16:09:01.621Z,2.03
2022-08-04T16:11:33.198Z,1.70
2022-08-04T16:14:02.813Z,2.00
2022-08-04T16:16:31.638Z,1.90
2022-08-04T16:19:05.649Z,2.00
2022-08-04T16:21:34.953Z,1.92
2022-08-04T16:24:40.457Z,1.80
2022-08-04T16:27:12.652Z,1.83
2022-08-04T16:29:42.352Z,1.80
2022-08-04T16:32:12.074Z,1.90
2022-08-04T16:34:48.155Z,2.17
2022-08-04T16:37:18.267Z,2.05
2022-08-04T16:39:50.786Z,1.65
2022-08-04T16:42:28.134Z,1.65
2022-08-04T16:45:07.733Z,1.70
2022-08-04T16:47:49.950Z,1.92
2022-08-04T16:50:21.956Z,2.00
2022-08-04T16:52:53.416Z,1.92
2022-08-04T16:55:22.270Z,1.88
2022-08-04T16:57:50.852Z,1.80
2022-08-04T17:00:27.279Z,1.85
2022-08-04T17:02:54.634Z,1.92
2022-08-04T17:05:39.447Z,2.17
2022-08-04T17:10:55.549Z,2.13
2022-08-04T17:14:02.784Z,1.58
2022-08-04T17:16:18.471Z,2.92
2022-08-04T17:18:52.639Z,2.60
2022-08-04T17:21:22.569Z,2.97
2022-08-04T17:24:15.277Z,2.20
2022-08-04T17:26:45.257Z,2.45
2022-08-04T17:29:19.935Z,2.28
2022-08-04T17:31:47.114Z,2.30
2022-08-04T17:34:16.796Z,2.20
2022-08-04T17:36:47.532Z,2.25
2022-08-04T17:39:24.266Z,2.33
2022-08-04T17:41:57.001Z,2.45
2022-08-04T17:44:36.650Z,2.30
2022-08-04T17:47:29.700Z,2.30
2022-08-04T17:50:11.537Z,2.20
2022-08-04T17:52:44.569Z,2.40
2022-08-04T17:55:16.216Z,2.17
2022-08-04T17:57:51.257Z,2.85
2022-08-04T18:00:20.130Z,2.40
2022-08-04T18:02:54.796Z,2.50
2022-08-04T18:05:50.334Z,2.15
2022-08-04T18:08:38.745Z,2.50
2022-08-04T18:11:03.861Z,2.60
2022-08-04T18:13:42.734Z,2.60
2022-08-04T18:16:21.875Z,2.33
2022-08-04T18:19:12.456Z,2.88
2022-08-04T18:24:13.651Z,2.13
2022-08-04T18:26:41.710Z,2.17
2022-08-04T18:29:30.900Z,2.50
2022-08-04T18:31:58.503Z,2.72
2022-08-04T18:34:25.250Z,2.15
2022-08-04T18:36:57.285Z,2.38
2022-08-04T18:40:25.752Z,2.40
2022-08-04T18:42:15.300Z,2.22
2022-08-04T18:44:52.922Z,2.30
2022-08-04T18:47:23.020Z,2.80
2022-08-04T18:51:01.121Z,2.97
2022-08-04T18:52:45.411Z,2.42
2022-08-04T18:55:56.667Z,3.00
2022-08-04T18:58:01.469Z,2.67
2022-08-04T19:00:33.245Z,2.58
2022-08-04T19:03:01.380Z,2.60
2022-08-04T19:05:38.020Z,2.70
2022-08-04T19:10:59.891Z,2.33
2022-08-04T19:13:27.916Z,2.42
2022-08-04T19:15:55.010Z,2.75
2022-08-04T19:18:26.169Z,2.47
2022-08-04T19:20:55.422Z,2.28
2022-08-04T19:24:23.394Z,2.97
2022-08-04T19:26:17.963Z,2.67
2022-08-04T19:28:54.741Z,2.78
2022-08-04T19:31:34.057Z,3.00
2022-08-04T19:34:07.220Z,3.63
2022-08-04T19:36:34.451Z,2.97
2022-08-04T19:39:11.578Z,3.10
2022-08-04T19:42:04.381Z,3.03
2022-08-04T19:44:29.914Z,2.88
2022-08-04T19:47:00.415Z,3.10
2022-08-04T19:52:15.148Z,3.00
2022-08-04T19:55:01.138Z,3.15
2022-08-04T19:57:46.587Z,3.40
2022-08-04T20:00:17.915Z,3.40
2022-08-04T20:03:00.864Z,2.95
2022-08-04T20:05:52.719Z,2.90
2022-08-04T20:08:15.374Z,2.90
2022-08-04T20:10:47.002Z,3.15
2022-08-04T20:13:18.523Z,2.83
2022-08-04T20:15:57.405Z,3.10
2022-08-04T20:18:35.817Z,3.35
2022-08-04T20:21:19.547Z,2.38
2022-08-04T20:23:52.297Z,3.17
2022-08-04T20:26:19.601Z,3.15
2022-08-04T20:28:51.905Z,3.25
2022-08-04T20:31:19.990Z,2.90
2022-08-04T20:33:49.060Z,2.60
2022-08-04T20:36:21.325Z,3.42
2022-08-04T20:38:52.902Z,3.38
2022-08-04T20:41:23.278Z,3.03
2022-08-04T20:43:50.794Z,3.20
2022-08-04T20:46:28.646Z,3.25
2022-08-04T20:48:56.950Z,3.22
2022-08-04T20:51:32.182Z,3.05
2022-08-04T20:54:02.382Z,3.33
2022-08-04T20:56:30.742Z,3.67
2022-08-04T20:58:59.248Z,2.77
2022-08-04T21:01:29.487Z,3.15
2022-08-04T21:04:28.020Z,3.20
2022-08-04T21:06:58.133Z,2.90
2022-08-04T21:12:27.255Z,3.20
2022-08-04T21:15:01.187Z,3.70
2022-08-04T21:17:56.530Z,2.97
2022-08-04T21:20:24.641Z,2.85
2022-08-04T21:22:55.050Z,2.92
2022-08-04T21:25:22.309Z,3.05
2022-08-04T21:27:49.755Z,3.03
2022-08-04T21:30:24.058Z,2.95
2022-08-04T21:32:52.449Z,3.05
2022-08-04T21:35:19.515Z,3.33
2022-08-04T21:37:58.073Z,3.03
2022-08-04T21:40:36.917Z,3.10
2022-08-04T21:43:07.617Z,2.45
2022-08-04T21:45:36.210Z,2.97
2022-08-04T21:48:03.854Z,2.67
2022-08-04T21:50:31.271Z,2.53
2022-08-04T21:52:58.893Z,3.15
2022-08-04T21:56:05.914Z,3.25
2022-08-04T21:58:13.607Z,2.95
2022-08-04T22:00:40.715Z,3.33
2022-08-04T22:03:11.248Z,3.60
2022-08-04T22:05:50.072Z,3.40
2022-08-04T22:08:19.889Z,3.22
2022-08-04T22:10:46.848Z,3.58
2022-08-04T22:13:22.480Z,3.00
2022-08-04T22:16:03.844Z,3.05
2022-08-04T22:18:32.361Z,3.60
2022-08-04T22:21:04.420Z,3.10
2022-08-04T22:23:45.099Z,2.60
2022-08-04T22:26:26.831Z,3.00
2022-08-04T22:31:24.868Z,2.90
2022-08-04T22:33:56.204Z,2.90
2022-08-04T22:36:24.872Z,2.83
2022-08-04T22:39:04.455Z,2.83
2022-08-04T22:41:48.623Z,3.13
2022-08-04T22:44:16.362Z,3.10
2022-08-04T22:46:43.131Z,2.70
2022-08-04T22:49:10.328Z,2.92
2022-08-04T22:51:37.709Z,2.95
2022-08-04T22:54:12.236Z,2.42
2022-08-04T22:56:39.531Z,2.60
2022-08-04T22:59:11.354Z,3.42
2022-08-04T23:02:00.658Z,2.95
2022-08-04T23:04:26.304Z,2.63
2022-08-04T23:06:54.402Z,2.85
2022-08-04T23:09:22.284Z,2.70
2022-08-04T23:12:25.143Z,3.22
2022-08-04T23:14:54.860Z,2.25
2022-08-04T23:17:22.186Z,3.20
2022-08-04T23:19:57.345Z,3.28
2022-08-04T23:22:41.231Z,2.92
2022-08-04T23:25:16.546Z,3.00
2022-08-04T23:27:50.426Z,2.47
2022-08-04T23:30:19.823Z,2.85
2022-08-04T23:32:49.152Z,3.05
2022-08-04T23:35:18.428Z,3.03
2022-08-04T23:40:50.551Z,2.88
2022-08-04T23:43:18.410Z,3.40
2022-08-04T23:46:07.403Z,2.75
2022-08-04T23:48:39.421Z,3.00
2022-08-04T23:51:14.014Z,2.42
2022-08-04T23:54:03.709Z,2.80
2022-08-04T23:56:30.168Z,2.88
2022-08-04T23:59:00.311Z,2.80
